x

Shumagin Islands - 85nm South Of Sand Point, Ak (46075) Wave Buoy

7:50 - Thu 5th Mar 2015 All times are UTC.

  • Sig Wave height 10.5ft
  • Peak Period 8s
  • Average Period 7s
  • Wind
    22mph, 29mph gusts
  • Sea Temp 42°f
  • Ar Temp 41°f
  • Sea Pressure 1018.1mb

More Historic Weather Station data

Upgrade to MSW Pro to gain access to the past 30 days of data for over 8000 Wavebouys and Weather Stations around the globe.

Join Pro

Comparision Forecast

View Surf forecast
   
Qui 03/05 7:50 10.5ft 8s 7s 22 29 mph 1018.1mb 42f 41f
6:50 10ft 7s 6s 22 29 mph 1017.3mb 42f 40f
5:50 10ft 8s 7s 22 27 mph 1016.4mb 42f 39f
4:50 9.5ft 8s 7s 22 29 mph 1015.6mb 42f 39f
3:50 9ft 8s 7s 22 27 mph 1014.8mb 42f 39f
2:50 8.5ft 7s 6s 25 31 mph 1014.1mb 42f 39f
1:50 8.5ft 8s 6s 22 29 mph 1013.3mb 42f 39f
12:50 8ft 8s 6s 22 29 mph 1012.8mb 42f 39f
11:50 7ft 8s 6s 22 27 mph 1012.3mb 42f 39f
10:50 6.5ft 6s 6s 22 27 mph 1011.8mb 42f 39f
9:50 6ft 8s 6s 20 22 mph 1011.4mb 42f 40f
8:50 5.5ft 10s 6s 22 29 mph 1010.9mb 42f 40f
7:50 5.5ft 7s 6s 18 22 mph 1010.5mb 42f 39f
6:50 6ft 9s 6s 11 16 mph 1010.3mb 42f 38f
5:50 6ft 10s 6s 9 13 mph 1010.4mb 42f 38f
4:50 6ft 11s 6s 13 16 mph 1010.4mb 42f 37f
3:50 7ft 9s 6s 16 18 mph 1010.5mb 42f 37f
2:50 6ft 10s 6s 13 18 mph 1011.2mb 42f 36f
1:50 6.5ft 9s 7s 16 18 mph 1011.8mb 42f 36f
12:50 6ft 11s 6s 13 18 mph 1012.5mb 42f 37f
Qua 03/04 11:50 6ft 11s 7s 9 13 mph 1013.4mb 42f 37f
10:50 7ft 11s 7s 11 13 mph 1014.4mb 42f 38f
9:50 7ft 11s 7s 13 18 mph 1015mb 42f 40f
8:50 7ft 12s 7s 18 22 mph 1015.4mb 43f 40f
7:50 7ft 9s 7s 11 16 mph 1016.2mb 43f 39f
6:50 7ft 8s 7s 13 18 mph 1016.7mb 42f 38f
5:50 8ft 10s 7s 11 16 mph 1016.9mb 43f 37f
4:50 8.5ft 11s 7s 18 20 mph 1017.2mb 43f 37f
3:50 9.5ft 10s 7s 13 16 mph 1017.6mb 43f 37f
2:50 9ft 12s 7s 11 18 mph 1017.7mb 43f 37f
1:50 10ft 11s 8s 16 20 mph 1017.8mb 43f 38f
12:50 9ft 12s 8s 11 13 mph 1017.7mb 43f 37f
11:50 9ft 13s 8s 11 13 mph 1018mb 43f 38f
10:50 8.5ft 12s 8s 11 16 mph 1018mb 43f 38f
9:50 8.5ft 10s 8s 11 13 mph 1017.8mb 42f 38f
8:50 9.5ft 13s 8s 16 20 mph 1017.6mb 42f 38f
7:50 8.5ft 14s 8s 13 16 mph 1017.2mb 43f 39f
6:50 8ft 14s 8s 16 20 mph 1017mb 43f 40f
5:50 8.5ft 10s 7s 18 22 mph 1016.8mb 43f 40f
4:50 7ft 10s 7s 18 22 mph 1016.3mb 43f 39f
3:50 9ft 15s 8s 16 20 mph 1015.7mb 43f 41f
2:50 8.5ft 14s 9s 11 13 mph 1015.3mb 43f 41f
1:50 8ft 14s 9s 7 9 mph 1015mb 43f 41f
12:50 7ft 12s 8s 7 9 mph 1015mb 43f 42f
Ter 03/03 11:50 8ft 10s 8s 9 11 mph 1014.8mb 43f 41f
10:50 8ft 10s 8s 2 4 mph 1014.3mb 43f 42f
9:50 7.5ft 13s 8s 2 7 mph 1014.1mb 43f 42f
8:50 8ft 14s 8s 4 7 mph 1013.9mb 43f 41f
7:50 7ft 14s 8s 2 7 mph 1013.5mb 43f 39f
6:50 7ft 10s 8s 4 7 mph 1012.8mb 43f 38f
5:50 7ft 10s 7s 7 11 mph 1012.4mb 43f 38f
4:50 8ft 13s 8s 7 9 mph 1011.8mb 43f 37f
3:50 9ft 13s 8s 9 13 mph 1011.5mb 43f 38f
2:50 8.5ft 14s 8s 9 13 mph 1011.2mb 43f 38f
1:50 9ft 13s 8s 9 13 mph 1011mb 43f 38f
12:50 8.5ft 13s 8s 11 16 mph 1011.1mb 43f 38f
11:50 8ft 14s 8s 13 16 mph 1011.1mb 43f 38f
10:50 8ft 12s 8s 13 16 mph 1010.9mb 43f 38f
9:50 7ft 13s 7s 13 16 mph 1010.7mb 43f 39f
8:50 8ft 13s 8s 11 16 mph 1010.5mb 43f 39f
7:50 8ft 14s 7s 13 16 mph 1010.2mb 43f 41f
6:50 8ft 14s 8s 13 18 mph 1010.1mb 42f 41f
5:50 8ft 13s 7s 16 20 mph 1009.5mb 42f 40f
4:50 8ft 14s 7s 18 22 mph 1008.9mb 42f 41f
3:50 8ft 14s 6s 16 20 mph 1007.9mb 42f 42f
2:50 8ft 14s 6s 20 27 mph 1007.2mb 42f 42f
1:50 8.5ft 14s 7s 20 25 mph 1006.8mb 42f 41f
12:50 7.5ft 14s 6s 20 25 mph 1006.2mb 42f 41f
Seg 03/02 11:50 7ft 14s 6s 25 29 mph 1005.8mb 42f 41f
10:50 6ft 15s 7s 20 25 mph 1005.5mb 42f 40f
9:50 6.5ft 15s 7s 20 22 mph 1005mb 42f 41f
8:50 5.5ft 10s 6s 18 22 mph 1004.9mb 42f 41f
7:50 5.5ft 15s 7s 13 18 mph 1004.7mb 42f 42f
6:50 6ft 10s 7s 13 16 mph 1004.5mb 42f 42f
5:50 5.5ft 10s 6s 9 11 mph 1004.4mb 42f 41f
4:50 5.5ft 10s 6s 7
mph
1004.8mb 42f 41f
3:50 5ft 9s 6s 4 7 mph 1005.2mb 42f 41f
2:50 5ft 9s 5s 2 4 mph 1005.9mb 42f 41f
1:50 5ft 9s 5s 4 7 mph 1006.7mb 42f 41f
12:50 6ft 10s 6s 7 9 mph 1007.7mb 42f 41f
11:50 6ft 9s 6s 11
mph
1008.7mb 42f 41f
10:50 6ft 9s 6s 11 13 mph 1009.4mb 42f 42f
9:50 7ft 9s 6s 13 16 mph 1010.2mb 42f 42f
8:50 6.5ft 9s 5s 18 20 mph 1011.1mb 42f 42f
7:50 7.5ft 9s 6s 18 22 mph 1011.9mb 42f 42f
6:50 7ft 9s 5s 18 22 mph 1012.5mb 42f 42f
5:50 6ft 6s 5s 16 20 mph 1013.6mb 42f 42f
4:50 6ft 6s 5s 20 22 mph 1013.7mb 42f 42f
3:50 6ft 6s 5s 18 22 mph 1014.5mb 42f 42f
2:50 6ft 6s 5s 20 22 mph 1015.1mb 42f 42f
1:50 6ft 5s 5s 20 25 mph 1016.1mb 42f 42f
12:50 5.5ft 6s 5s 22 25 mph 1017mb 42f 42f
Dom 03/01 11:50 5.5ft 5s 4s 22 27 mph 1017.5mb 42f 42f
10:50 5.5ft 5s 4s 22 27 mph 1018.5mb 42f 42f
9:50 5ft 6s 4s 22 25 mph 1019.6mb 42f 42f
8:50 5.5ft 5s 4s 25 27 mph 1020.3mb 42f 42f